createdAt,value
2019-05-10T00:00:33.308Z,3.85
2019-05-10T00:03:19.898Z,3.45
2019-05-10T00:06:06.321Z,3.70
2019-05-10T00:08:45.862Z,3.47
2019-05-10T00:11:20.908Z,3.45
2019-05-10T00:13:50.889Z,3.65
2019-05-10T00:16:19.268Z,3.95
2019-05-10T00:18:47.626Z,3.50
2019-05-10T00:21:16.262Z,3.50
2019-05-10T00:23:44.590Z,3.40
2019-05-10T00:26:12.911Z,4.00
2019-05-10T00:28:41.201Z,3.77
2019-05-10T00:31:09.505Z,3.65
2019-05-10T00:33:37.845Z,3.40
2019-05-10T00:36:06.169Z,3.80
2019-05-10T00:38:34.480Z,3.60
2019-05-10T00:41:02.841Z,3.60
2019-05-10T00:43:31.146Z,3.62
2019-05-10T00:45:59.460Z,4.00
2019-05-10T00:48:27.801Z,3.90
2019-05-10T00:50:56.118Z,4.20
2019-05-10T00:53:24.414Z,3.72
2019-05-10T00:55:52.818Z,3.60
2019-05-10T00:58:21.196Z,3.67
2019-05-10T01:00:49.525Z,4.70
2019-05-10T01:03:18.178Z,4.05
2019-05-10T01:05:46.507Z,4.12
2019-05-10T01:08:14.816Z,3.55
2019-05-10T01:10:43.187Z,3.92
2019-05-10T01:13:11.492Z,3.90
2019-05-10T01:15:39.798Z,3.90
2019-05-10T01:18:08.129Z,4.20
2019-05-10T01:20:36.423Z,4.20
2019-05-10T01:23:05.047Z,3.75
2019-05-10T01:25:35.550Z,4.17
2019-05-10T01:28:03.808Z,3.62
2019-05-10T01:30:32.517Z,4.17
2019-05-10T01:33:00.839Z,4.20
2019-05-10T01:35:29.175Z,4.10
2019-05-10T01:37:57.473Z,3.87
2019-05-10T01:40:25.833Z,4.12
2019-05-10T01:42:54.140Z,3.97
2019-05-10T01:45:22.537Z,4.55
2019-05-10T01:47:50.869Z,4.40
2019-05-10T01:50:19.159Z,5.12
2019-05-10T01:52:47.469Z,5.15
2019-05-10T01:55:15.847Z,4.90
2019-05-10T01:57:44.187Z,4.85
2019-05-10T02:00:13.762Z,4.80
2019-05-10T02:02:42.511Z,5.47
2019-05-10T02:05:10.889Z,5.62
2019-05-10T02:10:42.768Z,5.60
2019-05-10T02:13:11.100Z,5.45
2019-05-10T02:15:39.404Z,5.42
2019-05-10T02:18:11.203Z,5.80
2019-05-10T02:20:39.880Z,5.25
2019-05-10T02:23:08.241Z,5.80
2019-05-10T02:25:36.547Z,5.50
2019-05-10T02:28:04.859Z,6.40
2019-05-10T02:30:33.155Z,5.40
2019-05-10T02:33:01.493Z,5.47
2019-05-10T02:35:29.790Z,5.40
2019-05-10T02:37:58.098Z,5.58
2019-05-10T02:40:26.473Z,6.43
2019-05-10T02:42:54.863Z,5.80
2019-05-10T02:45:23.155Z,6.00
2019-05-10T02:47:51.486Z,5.70
2019-05-10T02:50:19.779Z,5.80
2019-05-10T02:52:48.093Z,5.80
2019-05-10T02:55:16.416Z,5.60
2019-05-10T02:57:44.943Z,5.65
2019-05-10T03:00:13.296Z,5.50
2019-05-10T03:02:41.600Z,5.50
2019-05-10T03:05:09.911Z,5.15
2019-05-10T03:07:38.463Z,5.08
2019-05-10T03:10:10.060Z,5.33
2019-05-10T03:12:40.580Z,6.50
2019-05-10T03:15:10.979Z,6.22
2019-05-10T03:17:39.943Z,5.80
2019-05-10T03:20:08.348Z,6.40
2019-05-10T03:22:41.385Z,5.62
2019-05-10T03:25:10.123Z,6.20
2019-05-10T03:27:38.901Z,6.00
2019-05-10T03:30:07.393Z,6.08
2019-05-10T03:32:35.729Z,5.63
2019-05-10T03:35:05.878Z,6.03
2019-05-10T03:37:34.443Z,6.17
2019-05-10T03:40:03.748Z,6.80
2019-05-10T03:42:32.124Z,6.60
2019-05-10T03:45:00.424Z,6.10
2019-05-10T03:47:29.064Z,6.70
2019-05-10T03:49:57.407Z,7.03
2019-05-10T03:52:25.713Z,6.33
2019-05-10T03:54:54.039Z,6.42
2019-05-10T03:57:22.346Z,5.90
2019-05-10T03:59:50.649Z,6.33
2019-05-10T04:02:18.993Z,6.22
2019-05-10T04:04:47.297Z,5.53
2019-05-10T04:07:16.027Z,5.92
2019-05-10T04:09:44.436Z,6.42
2019-05-10T04:12:12.783Z,6.50
2019-05-10T04:14:41.094Z,6.35
2019-05-10T04:17:09.470Z,6.65
2019-05-10T04:19:37.818Z,6.70
2019-05-10T04:22:06.113Z,6.83
2019-05-10T04:24:36.547Z,6.45
2019-05-10T04:27:04.547Z,6.22
2019-05-10T04:29:32.863Z,5.90
2019-05-10T04:32:01.179Z,6.12
2019-05-10T04:34:29.501Z,6.00
2019-05-10T04:36:57.826Z,5.65
2019-05-10T04:39:26.152Z,5.90
2019-05-10T04:41:54.516Z,5.90
2019-05-10T04:44:22.853Z,6.20
2019-05-10T04:46:51.171Z,6.53
2019-05-10T04:49:19.497Z,6.28
2019-05-10T04:51:47.819Z,6.17
2019-05-10T04:54:16.154Z,6.85
2019-05-10T04:56:44.474Z,6.95
2019-05-10T04:59:12.854Z,7.00
2019-05-10T05:01:41.243Z,6.20
2019-05-10T05:07:17.782Z,7.23
2019-05-10T05:09:46.093Z,7.25
2019-05-10T05:12:19.068Z,7.17
2019-05-10T05:14:47.505Z,7.40
2019-05-10T05:17:15.937Z,7.20
2019-05-10T05:19:46.712Z,7.17
2019-05-10T05:22:15.079Z,7.22
2019-05-10T05:24:43.495Z,7.03
2019-05-10T05:27:12.415Z,7.10
2019-05-10T05:29:40.847Z,7.28
2019-05-10T05:32:12.936Z,7.37
2019-05-10T05:34:39.327Z,6.85
2019-05-10T05:37:07.839Z,7.67
2019-05-10T05:39:36.241Z,7.27
2019-05-10T05:42:04.674Z,7.80
2019-05-10T05:44:33.107Z,7.05
2019-05-10T05:47:04.592Z,7.00
2019-05-10T05:49:31.607Z,7.60
2019-05-10T05:52:00.047Z,7.65
2019-05-10T05:54:28.493Z,8.43
2019-05-10T05:56:56.920Z,8.35
2019-05-10T05:59:26.245Z,9.25
2019-05-10T06:02:00.699Z,9.00
2019-05-10T06:04:24.911Z,9.80
2019-05-10T06:06:53.807Z,10.88
2019-05-10T06:09:23.424Z,10.38
2019-05-10T06:11:51.874Z,10.90
2019-05-10T06:14:20.328Z,12.28
2019-05-10T06:16:51.523Z,10.60
2019-05-10T06:19:20.521Z,12.53
2019-05-10T06:21:48.978Z,10.98
2019-05-10T06:24:17.389Z,10.93
2019-05-10T06:26:45.823Z,10.93
2019-05-10T06:29:17.497Z,11.08
2019-05-10T06:31:44.425Z,10.65
2019-05-10T06:34:12.861Z,11.53
2019-05-10T06:36:41.272Z,11.70
2019-05-10T06:39:10.041Z,13.10
2019-05-10T06:41:38.467Z,12.85
2019-05-10T06:44:06.913Z,12.77
2019-05-10T06:46:35.344Z,13.45
2019-05-10T06:49:08.314Z,13.17
2019-05-10T06:51:33.809Z,13.60
2019-05-10T06:54:02.260Z,13.62
2019-05-10T06:56:30.718Z,13.75
2019-05-10T06:59:12.346Z,13.10
2019-05-10T07:01:29.342Z,12.82
2019-05-10T07:03:57.966Z,12.67
2019-05-10T07:06:26.413Z,12.30
2019-05-10T07:08:57.930Z,12.37
2019-05-10T07:11:24.905Z,11.95
2019-05-10T07:13:53.394Z,12.07
2019-05-10T07:16:24.389Z,11.57
2019-05-10T07:18:54.863Z,11.53
2019-05-10T07:21:21.984Z,11.33
2019-05-10T07:23:50.793Z,10.95
2019-05-10T07:26:23.931Z,10.82
2019-05-10T07:28:51.619Z,11.18
2019-05-10T07:31:23.335Z,11.53
2019-05-10T07:33:49.433Z,12.37
2019-05-10T07:36:20.801Z,12.98
2019-05-10T07:38:47.975Z,14.27
2019-05-10T07:41:19.603Z,15.63
2019-05-10T07:43:48.209Z,15.70
2019-05-10T07:46:17.095Z,17.00
2019-05-10T07:48:47.331Z,16.93
2019-05-10T07:51:15.635Z,17.87
2019-05-10T07:53:44.137Z,17.25
2019-05-10T07:56:12.555Z,17.10
2019-05-10T07:58:43.204Z,16.83
2019-05-10T08:01:11.063Z,17.42
2019-05-10T08:03:44.386Z,16.82
2019-05-10T08:06:09.598Z,17.13
2019-05-10T08:08:39.150Z,16.57
2019-05-10T08:11:08.596Z,16.20
2019-05-10T08:13:39.350Z,16.97
2019-05-10T08:16:11.908Z,16.93
2019-05-10T08:18:42.034Z,17.45
2019-05-10T08:21:18.788Z,17.42
2019-05-10T08:23:37.649Z,17.60
2019-05-10T08:26:10.903Z,15.30
2019-05-10T08:28:37.857Z,14.00
2019-05-10T08:31:06.256Z,13.75
2019-05-10T08:33:34.706Z,13.80
2019-05-10T08:36:05.433Z,15.20
2019-05-10T08:38:33.252Z,14.55
2019-05-10T08:41:02.678Z,14.60
2019-05-10T08:43:38.776Z,14.60
2019-05-10T08:46:02.736Z,13.70
2019-05-10T08:48:33.062Z,12.90
2019-05-10T08:51:03.986Z,12.80
2019-05-10T08:53:32.871Z,12.95
2019-05-10T08:56:02.223Z,11.50
2019-05-10T08:58:36.970Z,10.70
2019-05-10T09:01:16.439Z,10.78
2019-05-10T09:03:32.331Z,11.03
2019-05-10T09:06:05.327Z,11.53
2019-05-10T09:08:32.522Z,11.12
2019-05-10T09:11:06.439Z,12.05
2019-05-10T09:13:37.239Z,12.47
2019-05-10T09:16:02.413Z,11.22
2019-05-10T09:18:32.950Z,11.05
2019-05-10T09:21:08.613Z,9.33
2019-05-10T09:23:32.675Z,9.17
2019-05-10T09:26:09.525Z,9.00
2019-05-10T09:28:32.207Z,8.65
2019-05-10T09:31:16.532Z,8.90
2019-05-10T09:33:32.003Z,8.50
2019-05-10T09:36:02.735Z,8.53
2019-05-10T09:38:34.879Z,7.87
2019-05-10T09:41:02.496Z,7.53
2019-05-10T09:43:31.943Z,6.25
2019-05-10T09:46:02.746Z,6.12
2019-05-10T09:48:33.097Z,5.67
2019-05-10T09:51:03.969Z,6.15
2019-05-10T09:53:31.520Z,6.40
2019-05-10T09:56:02.868Z,6.03
2019-05-10T09:58:29.980Z,5.45
2019-05-10T10:01:13.957Z,5.30
2019-05-10T10:03:29.984Z,5.08
2019-05-10T10:06:05.178Z,3.60
2019-05-10T10:08:29.248Z,3.40
2019-05-10T10:11:01.154Z,3.52
2019-05-10T10:13:39.272Z,4.12
2019-05-10T10:15:58.155Z,3.98
2019-05-10T10:18:28.424Z,4.20
2019-05-10T10:20:56.596Z,4.47
2019-05-10T10:23:30.668Z,4.42
2019-05-10T10:25:55.196Z,4.17
2019-05-10T10:28:23.575Z,3.30
2019-05-10T10:30:58.969Z,2.87
2019-05-10T10:33:25.345Z,3.08
2019-05-10T10:35:56.208Z,3.40
2019-05-10T10:38:22.233Z,3.37
2019-05-10T10:40:50.603Z,3.25
2019-05-10T10:43:19.009Z,4.00
2019-05-10T10:45:47.374Z,3.90
2019-05-10T10:48:17.729Z,4.20
2019-05-10T10:50:53.399Z,3.47
2019-05-10T10:53:17.907Z,5.37
2019-05-10T10:55:54.206Z,4.12
2019-05-10T10:58:18.538Z,4.10
2019-05-10T11:00:48.127Z,3.60
2019-05-10T11:03:16.192Z,4.35
2019-05-10T11:05:44.589Z,4.20
2019-05-10T11:08:12.938Z,3.77
2019-05-10T11:10:42.977Z,3.75
2019-05-10T11:13:18.808Z,3.77
2019-05-10T11:15:42.115Z,3.75
2019-05-10T11:18:10.670Z,3.15
2019-05-10T11:20:41.920Z,3.60
2019-05-10T11:23:10.678Z,4.10
2019-05-10T11:25:42.723Z,3.80
2019-05-10T11:28:12.193Z,4.12
2019-05-10T11:30:40.519Z,4.20
2019-05-10T11:33:23.837Z,3.90
2019-05-10T11:35:41.549Z,3.70
2019-05-10T11:38:12.736Z,3.25
2019-05-10T11:40:41.709Z,3.75
2019-05-10T11:43:09.404Z,3.63
2019-05-10T11:45:41.122Z,4.08
2019-05-10T11:48:07.722Z,3.45
2019-05-10T11:50:36.101Z,4.00
2019-05-10T11:55:35.701Z,4.03
2019-05-10T11:58:08.734Z,3.17
2019-05-10T11:59:04.732Z,3.40
2019-05-10T12:00:34.874Z,3.33
2019-05-10T12:03:11.332Z,2.90
2019-05-10T12:05:33.334Z,3.22
2019-05-10T12:08:02.255Z,3.08
2019-05-10T12:10:31.988Z,3.00
2019-05-10T12:13:11.381Z,2.65
2019-05-10T12:15:31.797Z,2.62
2019-05-10T12:18:04.506Z,2.70
2019-05-10T12:20:54.079Z,2.80
2019-05-10T12:23:03.213Z,2.77
2019-05-10T12:25:46.245Z,3.00
2019-05-10T12:28:02.564Z,3.05
2019-05-10T12:30:35.078Z,2.80
2019-05-10T12:33:08.867Z,2.60
2019-05-10T12:35:35.638Z,2.50
2019-05-10T12:38:01.610Z,2.60
2019-05-10T12:40:31.461Z,2.50
2019-05-10T12:43:00.678Z,2.90
2019-05-10T12:45:31.335Z,3.00
2019-05-10T12:48:01.099Z,2.87
2019-05-10T12:50:29.178Z,2.60
2019-05-10T12:53:14.010Z,3.10
2019-05-10T12:55:27.585Z,2.37
2019-05-10T12:57:56.414Z,2.67
2019-05-10T13:00:24.793Z,2.50
2019-05-10T13:02:53.631Z,2.72
2019-05-10T13:05:30.814Z,2.85
2019-05-10T13:07:52.123Z,2.42
2019-05-10T13:10:20.497Z,2.70
2019-05-10T13:12:48.879Z,2.50
2019-05-10T13:15:17.277Z,2.60
2019-05-10T13:17:50.715Z,2.40
2019-05-10T13:20:15.641Z,2.27
2019-05-10T13:22:44.027Z,2.47
2019-05-10T13:25:12.446Z,2.40
2019-05-10T13:27:40.904Z,2.50
2019-05-10T13:30:09.439Z,2.40
2019-05-10T13:32:37.852Z,2.20
2019-05-10T13:35:07.181Z,2.05
2019-05-10T13:37:35.768Z,1.90
2019-05-10T13:40:07.900Z,2.15
2019-05-10T13:42:43.330Z,3.10
2019-05-10T13:45:06.789Z,1.98
2019-05-10T13:47:35.147Z,2.00
2019-05-10T13:50:05.212Z,2.22
2019-05-10T13:52:38.071Z,2.30
2019-05-10T13:55:07.073Z,1.90
2019-05-10T13:57:35.535Z,1.60
2019-05-10T14:00:07.028Z,1.52
2019-05-10T14:02:35.444Z,1.35
2019-05-10T14:05:04.700Z,1.67
2019-05-10T14:07:33.160Z,1.67
2019-05-10T14:10:01.566Z,1.53
2019-05-10T14:12:30.009Z,1.65
2019-05-10T14:15:02.602Z,1.90
2019-05-10T14:17:28.458Z,1.45
2019-05-10T14:19:56.893Z,1.80
2019-05-10T14:22:25.976Z,1.50
2019-05-10T14:24:58.883Z,1.37
2019-05-10T14:27:24.492Z,1.42
2019-05-10T14:29:52.819Z,1.40
2019-05-10T14:32:21.556Z,1.45
2019-05-10T14:34:49.963Z,1.30
2019-05-10T14:37:20.020Z,1.60
2019-05-10T14:39:48.389Z,1.30
2019-05-10T14:42:17.118Z,1.50
2019-05-10T14:44:45.569Z,1.57
2019-05-10T14:47:13.972Z,1.37
2019-05-10T14:49:46.934Z,1.47
2019-05-10T14:52:12.495Z,1.62
2019-05-10T14:54:43.820Z,1.90
2019-05-10T14:57:10.989Z,1.10
2019-05-10T14:59:39.398Z,1.30
2019-05-10T15:02:07.814Z,1.50
2019-05-10T15:04:45.280Z,1.35
2019-05-10T15:07:08.606Z,1.50
2019-05-10T15:09:36.400Z,1.40
2019-05-10T15:12:04.932Z,1.42
2019-05-10T15:14:33.337Z,1.80
2019-05-10T15:17:01.739Z,1.60
2019-05-10T15:19:31.459Z,1.57
2019-05-10T15:22:00.199Z,1.32
2019-05-10T15:24:28.634Z,1.50
2019-05-10T15:26:58.288Z,1.60
2019-05-10T15:29:26.689Z,1.70
2019-05-10T15:31:55.105Z,1.20
2019-05-10T15:34:23.539Z,1.27
2019-05-10T15:36:51.929Z,1.50
2019-05-10T15:39:23.154Z,1.50
2019-05-10T15:41:53.538Z,1.25
2019-05-10T15:44:30.299Z,1.22
2019-05-10T15:46:50.613Z,1.47
2019-05-10T15:49:23.268Z,1.33
2019-05-10T15:51:55.262Z,1.22
2019-05-10T15:54:19.163Z,1.30
2019-05-10T15:56:47.557Z,1.75
2019-05-10T15:59:19.147Z,1.30
2019-05-10T16:01:46.211Z,1.10
2019-05-10T16:04:14.793Z,1.20
2019-05-10T16:06:49.127Z,1.00
2019-05-10T16:09:19.136Z,1.30
2019-05-10T16:11:47.523Z,1.27
2019-05-10T16:14:15.874Z,1.50
2019-05-10T16:16:44.230Z,1.40
2019-05-10T16:19:17.943Z,1.23
2019-05-10T16:21:46.754Z,1.15
2019-05-10T16:24:13.648Z,9.40
2019-05-10T16:26:42.199Z,10.78
2019-05-10T16:29:10.512Z,1.40
2019-05-10T16:31:39.001Z,4.12
2019-05-10T16:34:07.414Z,3.37
2019-05-10T16:36:35.914Z,9.15
2019-05-10T16:39:06.420Z,10.23
2019-05-10T16:41:39.572Z,11.10
2019-05-10T16:44:08.313Z,10.55
2019-05-10T16:46:36.683Z,10.30
2019-05-10T16:49:10.069Z,10.95
2019-05-10T16:51:42.393Z,11.68
2019-05-10T16:54:13.408Z,11.90
2019-05-10T16:56:40.055Z,11.33
2019-05-10T16:59:08.583Z,10.90
2019-05-10T17:01:36.994Z,10.45
2019-05-10T17:04:05.883Z,10.60
2019-05-10T17:06:35.488Z,10.35
2019-05-10T17:09:12.917Z,10.20
2019-05-10T17:11:41.446Z,10.68
2019-05-10T17:14:07.224Z,10.55
2019-05-10T17:16:35.579Z,10.78
2019-05-10T17:19:03.979Z,10.30
2019-05-10T17:21:32.916Z,10.48
2019-05-10T17:24:01.252Z,10.82
2019-05-10T17:26:32.736Z,10.95
2019-05-10T17:28:59.986Z,11.08
2019-05-10T17:31:28.326Z,11.28
2019-05-10T17:33:56.645Z,11.10
2019-05-10T17:36:24.967Z,10.40
2019-05-10T17:41:36.234Z,10.72
2019-05-10T17:44:04.559Z,10.97
2019-05-10T17:46:32.918Z,11.57
2019-05-10T17:49:01.942Z,11.45
2019-05-10T17:51:30.342Z,11.33
2019-05-10T17:54:01.356Z,10.98
2019-05-10T17:56:32.819Z,10.60
2019-05-10T17:59:05.742Z,11.57
2019-05-10T18:01:30.955Z,11.20
2019-05-10T18:03:59.315Z,11.70
2019-05-10T18:06:27.649Z,11.78
2019-05-10T18:08:55.929Z,11.85
2019-05-10T18:11:24.220Z,11.63
2019-05-10T18:13:52.603Z,11.40
2019-05-10T18:16:20.898Z,11.45
2019-05-10T18:18:49.257Z,11.43
2019-05-10T18:21:21.839Z,11.40
2019-05-10T18:23:47.589Z,11.35
2019-05-10T18:26:15.887Z,11.80
2019-05-10T18:28:44.276Z,10.98
2019-05-10T18:31:12.630Z,10.50
2019-05-10T18:33:44.271Z,11.35
2019-05-10T18:36:11.190Z,10.68
2019-05-10T18:38:39.619Z,11.00
2019-05-10T18:41:09.994Z,10.58
2019-05-10T18:43:40.793Z,10.20
2019-05-10T18:46:13.895Z,10.08
2019-05-10T18:48:42.285Z,10.45
2019-05-10T18:51:10.729Z,10.38
2019-05-10T18:53:39.106Z,9.98
2019-05-10T18:56:07.500Z,9.70
2019-05-10T18:58:35.864Z,9.48
2019-05-10T19:01:04.278Z,10.70
2019-05-10T19:03:34.056Z,10.18
2019-05-10T19:06:11.197Z,9.97
2019-05-10T19:08:36.496Z,9.50
2019-05-10T19:11:05.450Z,9.70
2019-05-10T19:13:40.193Z,10.03
2019-05-10T19:16:04.186Z,9.90
2019-05-10T19:18:32.565Z,9.98
2019-05-10T19:21:00.864Z,10.25
2019-05-10T19:23:29.181Z,10.45
2019-05-10T19:25:57.540Z,15.17
2019-05-10T19:28:28.386Z,12.23
2019-05-10T19:30:59.058Z,11.15
2019-05-10T19:33:29.576Z,9.58
2019-05-10T19:35:55.919Z,8.53
2019-05-10T19:38:24.310Z,8.60
2019-05-10T19:40:52.671Z,8.78
2019-05-10T19:43:21.947Z,8.43
2019-05-10T19:45:57.199Z,9.30
2019-05-10T19:48:21.029Z,8.50
2019-05-10T19:50:49.383Z,8.80
2019-05-10T19:53:17.700Z,8.43
2019-05-10T19:55:46.073Z,8.40
2019-05-10T19:58:14.441Z,8.65
2019-05-10T20:00:42.816Z,9.23
2019-05-10T20:03:11.116Z,9.00
2019-05-10T20:05:39.413Z,8.85
2019-05-10T20:08:07.792Z,9.03
2019-05-10T20:10:36.090Z,9.15
2019-05-10T20:13:04.469Z,8.60
2019-05-10T20:15:33.112Z,8.95
2019-05-10T20:18:01.535Z,8.65
2019-05-10T20:20:29.841Z,9.15
2019-05-10T20:22:58.233Z,9.03
2019-05-10T20:25:26.590Z,9.73
2019-05-10T20:27:54.964Z,10.45
2019-05-10T20:30:23.365Z,10.78
2019-05-10T20:32:54.420Z,10.15
2019-05-10T20:35:24.933Z,16.00
2019-05-10T20:38:01.695Z,11.05
2019-05-10T20:40:23.320Z,10.75
2019-05-10T20:42:51.619Z,11.20
2019-05-10T20:45:20.491Z,11.80
2019-05-10T20:47:48.775Z,11.03
2019-05-10T20:50:17.078Z,10.43
2019-05-10T20:52:45.467Z,10.58
2019-05-10T20:55:13.843Z,10.70
2019-05-10T20:57:42.235Z,11.12
2019-05-10T21:00:10.583Z,11.22
2019-05-10T21:02:38.951Z,11.78
2019-05-10T21:05:07.332Z,10.90
2019-05-10T21:07:36.025Z,11.48
2019-05-10T21:10:05.625Z,11.35
2019-05-10T21:12:33.992Z,15.63
2019-05-10T21:15:02.421Z,11.35
2019-05-10T21:17:31.051Z,10.45
2019-05-10T21:19:59.440Z,11.28
2019-05-10T21:22:27.830Z,11.13
2019-05-10T21:24:56.232Z,10.38
2019-05-10T21:27:24.594Z,10.25
2019-05-10T21:29:52.922Z,12.07
2019-05-10T21:32:21.301Z,12.45
2019-05-10T21:34:49.662Z,13.30
2019-05-10T21:37:18.061Z,12.80
2019-05-10T21:39:46.437Z,12.70
2019-05-10T21:42:14.738Z,13.08
2019-05-10T21:44:43.412Z,12.55
2019-05-10T21:47:11.732Z,12.70
2019-05-10T21:49:40.114Z,12.33
2019-05-10T21:52:08.516Z,12.58
2019-05-10T21:54:36.878Z,12.93
2019-05-10T21:57:05.183Z,13.10
2019-05-10T21:59:33.565Z,12.78
2019-05-10T22:02:01.933Z,13.45
2019-05-10T22:04:30.341Z,12.85
2019-05-10T22:06:58.731Z,13.57
2019-05-10T22:09:27.173Z,14.05
2019-05-10T22:11:59.019Z,14.10
2019-05-10T22:14:25.559Z,13.95
2019-05-10T22:16:53.908Z,13.68
2019-05-10T22:19:23.140Z,13.93
2019-05-10T22:21:54.900Z,14.50
2019-05-10T22:24:21.467Z,14.03
2019-05-10T22:26:49.819Z,14.43
2019-05-10T22:29:18.162Z,14.00
2019-05-10T22:31:46.513Z,14.43
2019-05-10T22:34:14.873Z,13.67
2019-05-10T22:36:43.203Z,13.88
2019-05-10T22:39:11.591Z,13.20
2019-05-10T22:41:39.945Z,13.88
2019-05-10T22:44:08.272Z,14.25
2019-05-10T22:46:37.002Z,14.20
2019-05-10T22:49:05.372Z,14.18
2019-05-10T22:51:33.686Z,14.50
2019-05-10T22:54:02.054Z,14.05
2019-05-10T22:56:30.344Z,14.83
2019-05-10T22:58:58.808Z,14.58
2019-05-10T23:01:27.096Z,14.43
2019-05-10T23:03:55.478Z,14.18
2019-05-10T23:06:23.873Z,9.87
2019-05-10T23:08:52.228Z,15.00
2019-05-10T23:11:20.511Z,14.73
2019-05-10T23:13:48.834Z,16.05
2019-05-10T23:16:17.127Z,15.05
2019-05-10T23:18:45.558Z,15.85
2019-05-10T23:21:13.908Z,15.60
2019-05-10T23:23:42.262Z,16.33
2019-05-10T23:26:10.589Z,15.90
2019-05-10T23:28:39.015Z,15.45
2019-05-10T23:31:07.316Z,15.80
2019-05-10T23:33:35.620Z,15.98
2019-05-10T23:36:04.003Z,16.12
2019-05-10T23:38:32.306Z,16.00
2019-05-10T23:41:00.627Z,16.97
2019-05-10T23:43:28.964Z,15.85
2019-05-10T23:45:57.261Z,16.77
2019-05-10T23:48:25.543Z,16.93
2019-05-10T23:50:53.866Z,16.93
2019-05-10T23:53:22.495Z,17.45
2019-05-10T23:55:51.485Z,16.45
2019-05-10T23:58:19.811Z,17.10
